createdAt,value
2018-08-19T00:00:32.484Z,99.99
2018-08-19T00:01:32.543Z,99.99
2018-08-19T00:02:32.602Z,99.99
2018-08-19T00:03:32.662Z,99.99
2018-08-19T00:04:32.721Z,99.99
2018-08-19T00:05:32.781Z,99.99
2018-08-19T00:06:32.843Z,99.99
2018-08-19T00:07:32.902Z,99.99
2018-08-19T00:08:32.959Z,99.99
2018-08-19T00:09:33.019Z,99.99
2018-08-19T00:10:33.078Z,99.99
2018-08-19T00:11:33.138Z,99.99
2018-08-19T00:12:33.205Z,99.99
2018-08-19T00:13:33.257Z,99.99
2018-08-19T00:14:33.315Z,99.99
2018-08-19T00:15:33.374Z,99.99
2018-08-19T00:16:33.436Z,99.99
2018-08-19T00:17:33.495Z,99.99
2018-08-19T00:18:33.552Z,99.99
2018-08-19T00:19:33.612Z,99.99
2018-08-19T00:20:33.674Z,99.99
2018-08-19T00:21:33.731Z,99.99
2018-08-19T00:22:33.791Z,99.99
2018-08-19T00:23:33.850Z,99.99
2018-08-19T00:24:33.909Z,99.99
2018-08-19T00:25:33.970Z,99.99
2018-08-19T00:26:34.027Z,99.99
2018-08-19T00:27:34.088Z,99.99
2018-08-19T00:28:34.147Z,99.99
2018-08-19T00:29:34.207Z,99.99
2018-08-19T00:30:34.264Z,99.99
2018-08-19T00:31:34.324Z,99.99
2018-08-19T00:32:34.384Z,99.99
2018-08-19T00:33:34.444Z,99.99
2018-08-19T00:34:34.503Z,99.99
2018-08-19T00:35:34.567Z,99.99
2018-08-19T00:36:34.622Z,99.99
2018-08-19T00:37:34.683Z,99.99
2018-08-19T00:38:34.739Z,99.99
2018-08-19T00:39:34.800Z,99.99
2018-08-19T00:40:34.858Z,99.99
2018-08-19T00:41:34.918Z,99.99
2018-08-19T00:42:34.977Z,99.99
2018-08-19T00:43:35.036Z,99.99
2018-08-19T00:44:35.101Z,99.99
2018-08-19T00:45:35.154Z,99.99
2018-08-19T00:46:35.215Z,99.99
2018-08-19T00:47:35.273Z,99.99
2018-08-19T00:48:35.583Z,99.99
2018-08-19T00:49:35.395Z,99.99
2018-08-19T00:50:35.450Z,99.99
2018-08-19T00:51:35.514Z,99.99
2018-08-19T00:52:35.571Z,99.99
2018-08-19T00:53:35.630Z,99.99
2018-08-19T00:54:35.687Z,99.99
2018-08-19T00:55:35.746Z,99.99
2018-08-19T00:56:35.806Z,99.99
2018-08-19T00:57:35.866Z,99.99
2018-08-19T00:58:35.925Z,99.99
2018-08-19T00:59:35.983Z,99.99
2018-08-19T01:00:36.043Z,99.99
2018-08-19T01:01:36.102Z,99.99
2018-08-19T01:02:36.161Z,99.99
2018-08-19T01:03:36.220Z,99.99
2018-08-19T01:04:36.281Z,99.99
2018-08-19T01:05:36.338Z,99.99
2018-08-19T01:06:36.398Z,99.99
2018-08-19T01:07:36.458Z,99.99
2018-08-19T01:08:36.767Z,99.99
2018-08-19T01:09:36.576Z,99.99
2018-08-19T01:10:36.633Z,99.99
2018-08-19T01:11:36.693Z,99.99
2018-08-19T01:12:36.753Z,99.99
2018-08-19T01:13:36.811Z,99.99
2018-08-19T01:14:36.870Z,99.99
2018-08-19T01:15:36.930Z,99.99
2018-08-19T01:16:36.990Z,99.99
2018-08-19T01:17:37.048Z,99.99
2018-08-19T01:18:37.106Z,99.99
2018-08-19T01:19:37.165Z,99.99
2018-08-19T01:20:37.227Z,99.99
2018-08-19T01:21:37.291Z,99.99
2018-08-19T01:22:37.344Z,99.99
2018-08-19T01:23:37.422Z,99.99
2018-08-19T01:24:37.461Z,99.99
2018-08-19T01:25:37.521Z,99.99
2018-08-19T01:26:37.578Z,99.99
2018-08-19T01:27:37.638Z,99.99
2018-08-19T01:28:37.699Z,99.99
2018-08-19T01:29:37.764Z,99.99
2018-08-19T01:30:37.815Z,99.99
2018-08-19T01:31:37.873Z,99.99
2018-08-19T01:32:37.934Z,99.99
2018-08-19T01:33:37.992Z,99.99
2018-08-19T01:34:38.052Z,99.99
2018-08-19T01:35:38.109Z,99.99
2018-08-19T01:36:38.169Z,99.99
2018-08-19T01:37:38.228Z,99.99
2018-08-19T01:38:38.286Z,99.99
2018-08-19T01:39:38.345Z,99.99
2018-08-19T01:40:38.404Z,99.99
2018-08-19T01:41:38.466Z,99.99
2018-08-19T01:42:38.522Z,99.99
2018-08-19T01:43:38.581Z,99.99
2018-08-19T01:44:38.891Z,99.99
2018-08-19T01:45:38.699Z,99.99
2018-08-19T01:46:38.757Z,99.99
2018-08-19T01:47:38.816Z,99.99
2018-08-19T01:48:38.875Z,99.99
2018-08-19T01:49:38.934Z,99.99
2018-08-19T01:50:38.991Z,99.99
2018-08-19T01:51:39.054Z,99.99
2018-08-19T01:52:39.111Z,99.99
2018-08-19T01:53:39.170Z,99.99
2018-08-19T01:54:39.228Z,99.99
2018-08-19T01:55:39.288Z,99.99
2018-08-19T01:56:39.346Z,99.99
2018-08-19T01:57:39.407Z,99.99
2018-08-19T01:58:39.467Z,99.99
2018-08-19T01:59:39.525Z,99.99
2018-08-19T02:00:39.582Z,99.99
2018-08-19T02:01:39.640Z,99.99
2018-08-19T02:02:39.698Z,99.99
2018-08-19T02:03:39.757Z,99.99
2018-08-19T02:04:39.816Z,99.99
2018-08-19T02:05:39.875Z,99.99
2018-08-19T02:06:39.933Z,99.99
2018-08-19T02:07:39.992Z,99.99
2018-08-19T02:08:40.050Z,99.99
2018-08-19T02:09:40.110Z,99.99
2018-08-19T02:10:40.168Z,99.99
2018-08-19T02:11:40.227Z,99.99
2018-08-19T02:12:40.286Z,99.99
2018-08-19T02:13:40.349Z,99.99
2018-08-19T02:14:40.406Z,99.99
2018-08-19T02:15:40.462Z,99.99
2018-08-19T02:16:40.520Z,99.99
2018-08-19T02:17:40.580Z,99.99
2018-08-19T02:18:40.637Z,99.99
2018-08-19T02:19:40.696Z,99.99
2018-08-19T02:20:40.807Z,99.99
2018-08-19T02:21:40.821Z,99.99
2018-08-19T02:22:40.872Z,99.99
2018-08-19T02:23:40.931Z,99.99
2018-08-19T02:24:41.010Z,99.99
2018-08-19T02:25:41.048Z,99.99
2018-08-19T02:26:41.107Z,99.99
2018-08-19T02:27:41.166Z,99.99
2018-08-19T02:28:41.224Z,99.99
2018-08-19T02:29:41.285Z,99.99
2018-08-19T02:30:41.341Z,99.99
2018-08-19T02:31:41.417Z,99.99
2018-08-19T02:32:41.459Z,99.99
2018-08-19T02:33:41.517Z,99.99
2018-08-19T02:34:41.575Z,99.99
2018-08-19T02:35:41.635Z,99.99
2018-08-19T02:36:41.693Z,99.99
2018-08-19T02:37:41.751Z,99.99
2018-08-19T02:38:41.809Z,99.99
2018-08-19T02:39:42.118Z,99.99
2018-08-19T02:40:41.926Z,99.99
2018-08-19T02:41:41.985Z,99.99
2018-08-19T02:42:42.043Z,99.99
2018-08-19T02:43:42.103Z,99.99
2018-08-19T02:44:42.160Z,99.99
2018-08-19T02:45:42.218Z,99.99
2018-08-19T02:46:42.278Z,99.99
2018-08-19T02:47:42.337Z,99.99
2018-08-19T02:48:42.395Z,99.99
2018-08-19T02:49:42.453Z,99.99
2018-08-19T02:50:42.512Z,99.99
2018-08-19T02:51:42.569Z,99.99
2018-08-19T02:52:42.627Z,99.99
2018-08-19T02:53:42.688Z,99.99
2018-08-19T02:54:42.744Z,99.99
2018-08-19T02:55:42.803Z,99.99
2018-08-19T02:56:42.866Z,99.99
2018-08-19T02:57:42.920Z,99.99
2018-08-19T02:58:42.979Z,99.99
2018-08-19T02:59:43.038Z,99.99
2018-08-19T03:00:43.095Z,99.99
2018-08-19T03:01:43.153Z,99.99
2018-08-19T03:02:43.211Z,99.99
2018-08-19T03:03:43.270Z,99.99
2018-08-19T03:04:43.329Z,99.99
2018-08-19T03:05:43.388Z,99.99
2018-08-19T03:06:43.445Z,99.99
2018-08-19T03:07:43.502Z,99.99
2018-08-19T03:08:43.562Z,99.99
2018-08-19T03:09:43.620Z,99.99
2018-08-19T03:10:43.677Z,99.99
2018-08-19T03:11:43.736Z,99.99
2018-08-19T03:12:43.796Z,99.99
2018-08-19T03:13:43.853Z,99.99
2018-08-19T03:14:43.909Z,99.99
2018-08-19T03:15:43.969Z,99.99
2018-08-19T03:16:44.028Z,99.99
2018-08-19T03:17:44.089Z,99.99
2018-08-19T03:18:44.144Z,99.99
2018-08-19T03:19:44.203Z,99.99
2018-08-19T03:20:44.261Z,99.99
2018-08-19T03:21:44.320Z,99.99
2018-08-19T03:22:44.377Z,99.99
2018-08-19T03:23:44.438Z,99.99
2018-08-19T03:24:44.496Z,99.99
2018-08-19T03:25:44.552Z,99.99
2018-08-19T03:26:44.609Z,99.99
2018-08-19T03:27:44.671Z,99.99
2018-08-19T03:28:44.730Z,99.99
2018-08-19T03:29:44.786Z,99.99
2018-08-19T03:30:44.844Z,99.99
2018-08-19T03:31:44.903Z,99.99
2018-08-19T03:32:44.961Z,99.99
2018-08-19T03:33:45.020Z,99.99
2018-08-19T03:34:45.077Z,99.99
2018-08-19T03:35:45.137Z,99.99
2018-08-19T03:36:45.198Z,99.99
2018-08-19T03:37:45.254Z,99.99
2018-08-19T03:38:45.310Z,99.99
2018-08-19T03:39:45.369Z,99.99
2018-08-19T03:40:45.427Z,99.99
2018-08-19T03:41:45.487Z,99.99
2018-08-19T03:42:45.548Z,99.99
2018-08-19T03:43:45.601Z,99.99
2018-08-19T03:44:45.661Z,99.99
2018-08-19T03:45:45.724Z,99.99
2018-08-19T03:46:45.776Z,99.99
2018-08-19T03:47:45.834Z,99.99
2018-08-19T03:48:45.893Z,99.99
2018-08-19T03:49:45.951Z,99.99
2018-08-19T03:50:46.009Z,99.99
2018-08-19T03:51:46.096Z,99.99
2018-08-19T03:52:46.143Z,99.99
2018-08-19T03:53:46.184Z,99.99
2018-08-19T03:54:46.268Z,99.99
2018-08-19T03:55:46.304Z,99.99
2018-08-19T03:56:46.381Z,99.99
2018-08-19T03:57:46.417Z,99.99
2018-08-19T03:58:46.494Z,99.99
2018-08-19T03:59:46.542Z,99.99
2018-08-19T04:00:46.608Z,99.99
2018-08-19T04:01:46.650Z,99.99
2018-08-19T04:02:46.708Z,99.99
2018-08-19T04:03:46.767Z,99.99
2018-08-19T04:04:46.825Z,99.99
2018-08-19T04:05:46.885Z,99.99
2018-08-19T04:06:46.941Z,99.99
2018-08-19T04:07:46.998Z,99.99
2018-08-19T04:08:47.057Z,99.99
2018-08-19T04:09:47.167Z,99.99
2018-08-19T04:10:47.173Z,99.99
2018-08-19T04:11:47.232Z,99.99
2018-08-19T04:12:47.290Z,99.99
2018-08-19T04:13:47.348Z,99.99
2018-08-19T04:14:47.407Z,99.99
2018-08-19T04:15:47.464Z,99.99
2018-08-19T04:16:47.523Z,99.99
2018-08-19T04:17:47.581Z,99.99
2018-08-19T04:18:47.639Z,99.99
2018-08-19T04:19:47.696Z,99.99
2018-08-19T04:20:47.755Z,99.99
2018-08-19T04:21:47.814Z,99.99
2018-08-19T04:22:47.871Z,99.99
2018-08-19T04:23:47.945Z,99.99
2018-08-19T04:24:47.988Z,99.99
2018-08-19T04:25:48.046Z,99.99
2018-08-19T04:26:48.103Z,99.99
2018-08-19T04:27:48.161Z,99.99
2018-08-19T04:28:48.223Z,99.99
2018-08-19T04:29:48.279Z,99.99
2018-08-19T04:30:48.337Z,99.99
2018-08-19T04:31:48.397Z,99.99
2018-08-19T04:32:48.452Z,99.99
2018-08-19T04:33:48.511Z,99.99
2018-08-19T04:34:48.604Z,99.99
2018-08-19T04:35:48.627Z,99.99
2018-08-19T04:36:48.836Z,99.99
2018-08-19T04:37:48.744Z,99.99
2018-08-19T04:38:48.802Z,99.99
2018-08-19T04:39:48.859Z,99.99
2018-08-19T04:40:48.918Z,99.99
2018-08-19T04:41:48.976Z,99.99
2018-08-19T04:42:49.032Z,99.99
2018-08-19T04:43:49.091Z,99.99
2018-08-19T04:44:49.151Z,99.99
2018-08-19T04:45:49.208Z,99.99
2018-08-19T04:46:49.268Z,99.99
2018-08-19T04:47:49.324Z,99.99
2018-08-19T04:48:49.396Z,99.99
2018-08-19T04:49:49.442Z,99.99
2018-08-19T04:50:49.498Z,99.99
2018-08-19T04:51:49.556Z,99.99
2018-08-19T04:52:49.614Z,99.99
2018-08-19T04:53:49.673Z,99.99
2018-08-19T04:54:49.730Z,99.99
2018-08-19T04:55:49.789Z,99.99
2018-08-19T04:56:49.855Z,99.99
2018-08-19T04:57:49.910Z,99.99
2018-08-19T04:58:49.965Z,99.99
2018-08-19T04:59:50.021Z,99.99
2018-08-19T05:00:50.082Z,99.99
2018-08-19T05:01:50.138Z,99.99
2018-08-19T05:02:50.448Z,99.99
2018-08-19T05:03:50.255Z,99.99
2018-08-19T05:04:50.312Z,99.99
2018-08-19T05:05:50.371Z,99.99
2018-08-19T05:06:50.428Z,99.99
2018-08-19T05:07:50.539Z,99.99
2018-08-19T05:08:50.545Z,99.99
2018-08-19T05:09:50.605Z,99.99
2018-08-19T05:10:50.662Z,99.99
2018-08-19T05:11:50.742Z,99.99
2018-08-19T05:12:50.782Z,99.99
2018-08-19T05:13:50.837Z,99.99
2018-08-19T05:14:50.894Z,99.99
2018-08-19T05:15:50.953Z,99.99
2018-08-19T05:16:51.011Z,99.99
2018-08-19T05:17:51.069Z,99.99
2018-08-19T05:18:51.127Z,99.99
2018-08-19T05:19:51.185Z,99.99
2018-08-19T05:20:51.245Z,99.99
2018-08-19T05:21:51.313Z,99.99
2018-08-19T05:22:51.610Z,99.99
2018-08-19T05:23:51.418Z,99.99
2018-08-19T05:24:51.476Z,99.99
2018-08-19T05:25:51.537Z,99.99
2018-08-19T05:26:51.592Z,99.99
2018-08-19T05:27:51.653Z,99.99
2018-08-19T05:28:51.710Z,99.99
2018-08-19T05:29:51.768Z,99.99
2018-08-19T05:30:51.840Z,99.99
2018-08-19T05:31:51.885Z,99.99
2018-08-19T05:32:51.943Z,99.99
2018-08-19T05:33:52.001Z,99.99
2018-08-19T05:34:52.102Z,99.99
2018-08-19T05:35:52.117Z,99.99
2018-08-19T05:36:52.177Z,99.99
2018-08-19T05:37:52.245Z,99.99
2018-08-19T05:38:52.291Z,99.99
2018-08-19T05:39:52.351Z,99.99
2018-08-19T05:40:52.408Z,99.99
2018-08-19T05:41:52.467Z,99.99
2018-08-19T05:42:52.524Z,99.99
2018-08-19T05:43:52.587Z,99.99
2018-08-19T05:44:52.642Z,99.99
2018-08-19T05:45:52.702Z,99.99
2018-08-19T05:46:52.761Z,99.99
2018-08-19T05:47:52.817Z,99.99
2018-08-19T05:48:52.875Z,99.99
2018-08-19T05:49:52.933Z,99.99
2018-08-19T05:50:52.992Z,99.99
2018-08-19T05:51:53.050Z,99.99
2018-08-19T05:52:53.109Z,99.99
2018-08-19T05:53:53.202Z,99.99
2018-08-19T05:54:53.227Z,99.99
2018-08-19T05:55:53.285Z,99.99
2018-08-19T05:56:53.343Z,99.99
2018-08-19T05:57:53.401Z,99.99
2018-08-19T05:58:53.459Z,99.99
2018-08-19T05:59:53.517Z,99.99
2018-08-19T06:00:53.576Z,99.99
2018-08-19T06:01:53.635Z,99.99
2018-08-19T06:02:53.693Z,99.99
2018-08-19T06:03:53.753Z,99.99
2018-08-19T06:04:53.811Z,99.99
2018-08-19T06:05:53.873Z,99.99
2018-08-19T06:06:53.928Z,99.99
2018-08-19T06:07:53.987Z,99.99
2018-08-19T06:08:54.045Z,99.99
2018-08-19T06:09:54.103Z,99.99
2018-08-19T06:10:54.160Z,99.99
2018-08-19T06:11:54.220Z,99.99
2018-08-19T06:12:54.280Z,99.99
2018-08-19T06:13:54.339Z,99.99
2018-08-19T06:14:54.397Z,99.99
2018-08-19T06:15:54.514Z,99.99
2018-08-19T06:16:54.516Z,99.99
2018-08-19T06:17:54.576Z,99.99
2018-08-19T06:18:54.633Z,99.99
2018-08-19T06:19:54.695Z,99.99
2018-08-19T06:20:54.751Z,99.99
2018-08-19T06:21:54.859Z,99.99
2018-08-19T06:22:54.869Z,99.99
2018-08-19T06:23:54.943Z,99.99
2018-08-19T06:24:54.987Z,99.99
2018-08-19T06:25:55.047Z,99.99
2018-08-19T06:26:55.109Z,99.99
2018-08-19T06:27:55.164Z,99.99
2018-08-19T06:28:55.479Z,99.99
2018-08-19T06:29:55.283Z,99.99
2018-08-19T06:30:55.383Z,99.99
2018-08-19T06:31:55.401Z,99.99
2018-08-19T06:32:55.460Z,99.99
2018-08-19T06:33:55.521Z,99.99
2018-08-19T06:34:55.700Z,99.99
2018-08-19T06:35:55.638Z,99.99
2018-08-19T06:36:55.696Z,99.99
2018-08-19T06:37:55.756Z,99.99
2018-08-19T06:38:55.814Z,99.99
2018-08-19T06:39:55.875Z,99.99
2018-08-19T06:40:55.936Z,99.99
2018-08-19T06:41:55.993Z,99.99
2018-08-19T06:42:56.054Z,99.99
2018-08-19T06:43:56.116Z,99.99
2018-08-19T06:44:56.173Z,99.99
2018-08-19T06:45:56.232Z,99.99
2018-08-19T06:46:56.292Z,99.99
2018-08-19T06:47:56.351Z,99.99
2018-08-19T06:48:56.562Z,99.99
2018-08-19T06:49:56.470Z,99.99
2018-08-19T06:50:56.552Z,99.99
2018-08-19T06:51:56.605Z,99.99
2018-08-19T06:52:56.657Z,99.99
2018-08-19T06:53:56.710Z,99.99
2018-08-19T06:54:56.774Z,99.99
2018-08-19T06:55:56.828Z,99.99
2018-08-19T06:56:56.888Z,99.99
2018-08-19T06:57:56.950Z,99.99
2018-08-19T06:58:57.026Z,99.99
2018-08-19T06:59:57.066Z,99.99
2018-08-19T07:00:57.129Z,99.99
2018-08-19T07:01:57.186Z,99.99
2018-08-19T07:02:57.245Z,99.99
2018-08-19T07:03:57.321Z,99.99
2018-08-19T07:04:57.366Z,99.99
2018-08-19T07:05:57.426Z,99.99
2018-08-19T07:06:57.485Z,99.99
2018-08-19T07:07:57.544Z,99.99
2018-08-19T07:08:57.605Z,99.99
2018-08-19T07:09:57.664Z,99.99
2018-08-19T07:10:57.724Z,99.99
2018-08-19T07:11:57.785Z,99.99
2018-08-19T07:12:57.845Z,99.99
2018-08-19T07:13:57.905Z,99.99
2018-08-19T07:14:57.964Z,99.99
2018-08-19T07:15:58.024Z,99.99
2018-08-19T07:16:58.085Z,99.99
2018-08-19T07:17:58.191Z,99.99
2018-08-19T07:18:58.205Z,99.99
2018-08-19T07:19:58.273Z,99.99
2018-08-19T07:20:58.324Z,99.99
2018-08-19T07:21:58.384Z,99.99
2018-08-19T07:22:58.445Z,99.99
2018-08-19T07:23:58.506Z,99.99
2018-08-19T07:24:58.566Z,99.99
2018-08-19T07:25:58.626Z,99.99
2018-08-19T07:26:58.685Z,99.99
2018-08-19T07:27:58.751Z,99.99
2018-08-19T07:28:58.810Z,99.99
2018-08-19T07:29:58.869Z,99.99
2018-08-19T07:30:58.928Z,99.99
2018-08-19T07:31:58.988Z,99.99
2018-08-19T07:32:59.048Z,99.99
2018-08-19T07:33:59.109Z,99.99
2018-08-19T07:34:59.171Z,99.99
2018-08-19T07:35:59.229Z,99.99
2018-08-19T07:36:59.409Z,99.99
2018-08-19T07:37:59.351Z,99.99
2018-08-19T07:38:59.411Z,99.99
2018-08-19T07:39:59.471Z,99.99
2018-08-19T07:40:59.533Z,99.99
2018-08-19T07:42:00.207Z,99.99
2018-08-19T07:42:59.654Z,99.99
2018-08-19T07:43:59.798Z,99.99
2018-08-19T07:44:59.774Z,99.99
2018-08-19T07:45:59.835Z,99.99
2018-08-19T07:46:59.896Z,99.99
2018-08-19T07:47:59.962Z,99.99
2018-08-19T07:49:00.018Z,99.99
2018-08-19T07:50:00.082Z,99.99
2018-08-19T07:51:00.139Z,99.99
2018-08-19T07:52:00.241Z,99.99
2018-08-19T07:53:00.263Z,99.99
2018-08-19T07:54:00.322Z,99.99
2018-08-19T07:55:00.382Z,99.99
2018-08-19T07:56:00.444Z,99.99
2018-08-19T07:57:00.504Z,99.99
2018-08-19T07:58:00.565Z,99.99
2018-08-19T07:59:53.093Z,99.99
2018-08-19T08:00:53.154Z,99.99
2018-08-19T08:01:53.215Z,99.99
2018-08-19T08:02:53.277Z,99.99
2018-08-19T08:03:53.348Z,99.73
2018-08-19T08:04:53.398Z,99.73
2018-08-19T08:05:53.460Z,99.64
2018-08-19T08:06:53.521Z,99.69
2018-08-19T08:07:53.588Z,99.21
2018-08-19T08:08:53.643Z,98.72
2018-08-19T08:09:53.705Z,97.96
2018-08-19T08:10:53.769Z,98.05
2018-08-19T08:11:53.828Z,97.47
2018-08-19T08:12:53.888Z,97.38
2018-08-19T08:13:54.047Z,97.47
2018-08-19T08:14:54.012Z,96.89
2018-08-19T08:15:54.074Z,96.75
2018-08-19T08:16:54.549Z,96.94
2018-08-19T08:17:54.247Z,96.51
2018-08-19T08:18:54.259Z,97.14
2018-08-19T08:19:54.320Z,96.17
2018-08-19T08:20:54.380Z,96.17
2018-08-19T08:21:54.467Z,95.98
2018-08-19T08:22:54.504Z,95.98
2018-08-19T08:23:54.566Z,95.55
2018-08-19T08:24:54.632Z,94.97
2018-08-19T08:25:54.690Z,94.68
2018-08-19T08:26:54.753Z,94.10
2018-08-19T08:27:54.814Z,93.43
2018-08-19T08:28:54.875Z,93.43
2018-08-19T08:29:54.938Z,92.90
2018-08-19T08:30:55.012Z,92.32
2018-08-19T08:31:55.066Z,91.93
2018-08-19T08:32:55.123Z,91.83
2018-08-19T08:33:55.184Z,91.64
2018-08-19T08:34:55.247Z,91.26
2018-08-19T08:35:55.311Z,90.34
2018-08-19T08:36:55.372Z,90.05
2018-08-19T08:37:55.433Z,89.86
2018-08-19T08:38:55.497Z,88.70
2018-08-19T08:39:55.558Z,88.65
2018-08-19T08:40:55.621Z,87.01
2018-08-19T08:41:55.683Z,87.10
2018-08-19T08:42:55.745Z,86.33
2018-08-19T08:43:55.808Z,86.43
2018-08-19T08:44:55.870Z,85.37
2018-08-19T08:45:55.933Z,85.12
2018-08-19T08:46:56.003Z,85.02
2018-08-19T08:47:56.096Z,85.12
2018-08-19T08:48:56.120Z,85.22
2018-08-19T08:49:56.183Z,84.83
2018-08-19T08:50:56.249Z,85.02
2018-08-19T08:51:56.308Z,83.48
2018-08-19T08:52:56.371Z,83.23
2018-08-19T08:53:56.434Z,82.94
2018-08-19T08:54:56.497Z,81.98
2018-08-19T08:55:56.560Z,80.53
2018-08-19T08:56:56.622Z,79.89
2018-08-19T08:57:56.685Z,78.44
2018-08-19T08:58:56.748Z,77.57
2018-08-19T08:59:56.811Z,76.70
2018-08-19T09:00:56.873Z,75.93
2018-08-19T09:01:56.938Z,74.81
2018-08-19T09:02:57.001Z,73.46
2018-08-19T09:03:57.062Z,72.72
2018-08-19T09:04:57.126Z,71.84
2018-08-19T09:05:57.191Z,71.08
2018-08-19T09:06:57.253Z,69.92
2018-08-19T09:07:57.315Z,70.40
2018-08-19T09:08:57.379Z,70.40
2018-08-19T09:09:57.442Z,70.14
2018-08-19T09:10:57.508Z,69.75
2018-08-19T09:11:57.569Z,70.04
2018-08-19T09:12:57.634Z,69.40
2018-08-19T09:13:57.765Z,68.91
2018-08-19T09:14:57.759Z,68.40
2018-08-19T09:15:57.823Z,68.15
2018-08-19T09:16:57.888Z,68.33
2018-08-19T09:17:57.950Z,67.85
2018-08-19T09:18:58.014Z,67.27
2018-08-19T09:19:58.095Z,67.46
2018-08-19T09:20:58.141Z,68.21
2018-08-19T09:21:58.727Z,68.49
2018-08-19T09:22:58.285Z,67.95
2018-08-19T09:23:58.332Z,66.88
2018-08-19T09:24:58.395Z,67.76
2018-08-19T09:25:58.459Z,66.69
2018-08-19T09:26:58.524Z,66.69
2018-08-19T09:27:58.596Z,66.92
2018-08-19T09:28:58.650Z,66.92
2018-08-19T09:29:58.741Z,66.43
2018-08-19T09:30:58.777Z,66.82
2018-08-19T09:31:58.840Z,66.05
2018-08-19T09:32:59.023Z,65.85
2018-08-19T09:33:58.969Z,65.85
2018-08-19T09:34:59.114Z,65.95
2018-08-19T09:35:59.104Z,66.24
2018-08-19T09:36:59.160Z,66.08
2018-08-19T09:37:59.225Z,65.40
2018-08-19T09:38:59.411Z,65.11
2018-08-19T09:39:59.418Z,64.43
2018-08-19T09:41:59.479Z,63.78
2018-08-19T09:42:59.585Z,63.30
2018-08-19T09:43:59.609Z,63.30
2018-08-19T09:46:02.427Z,63.10
2018-08-19T09:47:02.237Z,62.91
2018-08-19T09:48:02.521Z,63.27
2018-08-19T09:49:02.366Z,63.65
2018-08-19T09:50:02.431Z,64.14
2018-08-19T09:51:02.505Z,63.59
2018-08-19T09:52:02.556Z,63.49
2018-08-19T09:53:02.666Z,63.40
2018-08-19T09:54:02.737Z,63.20
2018-08-19T09:55:02.749Z,62.43
2018-08-19T09:56:02.816Z,62.43
2018-08-19T09:57:02.877Z,61.94
2018-08-19T09:58:02.943Z,63.20
2018-08-19T09:59:03.008Z,63.40
2018-08-19T10:00:03.079Z,62.13
2018-08-19T10:01:03.135Z,62.46
2018-08-19T10:02:03.202Z,61.36
2018-08-19T10:03:03.264Z,61.85
2018-08-19T10:04:03.328Z,62.23
2018-08-19T10:05:03.393Z,61.17
2018-08-19T10:06:03.837Z,61.39
2018-08-19T10:07:03.521Z,61.10
2018-08-19T10:08:03.586Z,61.58
2018-08-19T10:09:03.651Z,61.39
2018-08-19T10:10:03.715Z,61.00
2018-08-19T10:11:03.779Z,60.61
2018-08-19T10:12:03.845Z,60.42
2018-08-19T10:13:03.908Z,60.06
2018-08-19T10:14:03.973Z,59.09
2018-08-19T10:15:04.039Z,59.48
2018-08-19T10:16:04.102Z,59.19
2018-08-19T10:17:04.166Z,59.19
2018-08-19T10:18:04.231Z,59.41
2018-08-19T10:19:04.295Z,59.03
2018-08-19T10:20:04.360Z,59.12
2018-08-19T10:21:04.428Z,59.12
2018-08-19T10:22:04.489Z,58.93
2018-08-19T10:23:04.553Z,58.44
2018-08-19T10:24:04.617Z,58.15
2018-08-19T10:25:04.684Z,58.05
2018-08-19T10:26:04.764Z,58.54
2018-08-19T10:27:04.934Z,57.96
2018-08-19T10:28:04.878Z,57.57
2018-08-19T10:29:04.943Z,58.15
2018-08-19T10:30:05.008Z,57.21
2018-08-19T10:31:05.073Z,56.82
2018-08-19T10:32:09.571Z,56.62
2018-08-19T10:33:05.210Z,56.26
2018-08-19T10:34:05.280Z,55.32
2018-08-19T10:35:05.661Z,55.13
2018-08-19T10:36:05.473Z,54.44
2018-08-19T10:37:05.482Z,54.54
2018-08-19T10:38:05.537Z,54.32
2018-08-19T10:39:05.659Z,55.19
2018-08-19T10:40:05.670Z,54.97
2018-08-19T10:41:05.740Z,54.42
2018-08-19T10:42:05.808Z,53.40
2018-08-19T10:43:05.876Z,52.65
2018-08-19T10:44:05.944Z,51.29
2018-08-19T10:45:06.012Z,50.24
2018-08-19T10:46:06.083Z,49.39
2018-08-19T10:47:06.149Z,49.12
2018-08-19T10:48:06.219Z,48.73
2018-08-19T10:49:06.289Z,48.83
2018-08-19T10:50:06.358Z,48.14
2018-08-19T10:51:06.427Z,47.31
2018-08-19T10:52:06.497Z,46.34
2018-08-19T10:53:06.574Z,46.34
2018-08-19T10:54:06.639Z,46.63
2018-08-19T10:55:06.708Z,46.70
2018-08-19T10:56:06.778Z,47.00
2018-08-19T10:57:06.905Z,47.22
2018-08-19T10:58:06.919Z,45.56
2018-08-19T10:59:06.989Z,45.70
2018-08-19T11:00:07.061Z,44.51
2018-08-19T11:01:07.132Z,44.55
2018-08-19T11:02:07.203Z,44.38
2018-08-19T11:03:07.275Z,44.55
2018-08-19T11:04:07.346Z,44.87
2018-08-19T11:05:07.417Z,45.85
2018-08-19T11:06:07.489Z,46.88
2018-08-19T11:07:07.560Z,47.22
2018-08-19T11:08:07.631Z,46.51
2018-08-19T11:09:07.703Z,46.12
2018-08-19T11:10:07.775Z,46.63
2018-08-19T11:11:07.846Z,45.68
2018-08-19T11:12:07.921Z,44.60
2018-08-19T11:13:07.993Z,44.73
2018-08-19T11:14:08.061Z,44.53
2018-08-19T11:15:08.133Z,45.29
2018-08-19T11:16:08.204Z,44.63
2018-08-19T11:17:08.277Z,45.29
2018-08-19T11:18:08.349Z,45.85
2018-08-19T11:19:08.423Z,45.65
2018-08-19T11:20:08.492Z,45.56
2018-08-19T11:21:08.675Z,45.95
2018-08-19T11:22:08.636Z,44.92
2018-08-19T11:23:08.708Z,44.16
2018-08-19T11:24:08.781Z,43.59
2018-08-19T11:25:08.853Z,43.03
2018-08-19T11:26:08.924Z,42.64
2018-08-19T11:27:08.996Z,44.06
2018-08-19T11:28:09.067Z,44.12
2018-08-19T11:29:09.140Z,45.29
2018-08-19T11:30:09.212Z,45.58
2018-08-19T11:31:09.284Z,44.73
2018-08-19T11:32:09.362Z,45.14
2018-08-19T11:33:09.428Z,43.67
2018-08-19T11:34:09.652Z,44.16
2018-08-19T11:35:09.573Z,43.67
2018-08-19T11:36:09.643Z,44.06
2018-08-19T11:37:09.719Z,44.06
2018-08-19T11:38:09.789Z,44.06
2018-08-19T11:39:09.860Z,44.04
2018-08-19T11:40:09.932Z,44.34
2018-08-19T11:41:10.005Z,44.55
2018-08-19T11:42:10.076Z,44.16
2018-08-19T11:43:10.148Z,44.16
2018-08-19T11:44:10.219Z,45.21
2018-08-19T11:45:10.293Z,44.74
2018-08-19T11:46:10.364Z,45.31
2018-08-19T11:47:10.435Z,45.02
2018-08-19T11:48:10.507Z,44.55
2018-08-19T11:49:10.579Z,44.06
2018-08-19T11:50:10.652Z,44.30
2018-08-19T11:51:10.727Z,42.17
2018-08-19T11:52:10.795Z,43.38
2018-08-19T11:53:10.868Z,43.38
2018-08-19T11:54:10.949Z,43.57
2018-08-19T11:55:11.012Z,43.01
2018-08-19T11:56:11.083Z,43.38
2018-08-19T11:57:11.155Z,43.18
2018-08-19T11:58:11.228Z,43.49
2018-08-19T11:59:11.299Z,43.49
2018-08-19T12:00:11.370Z,43.10
2018-08-19T12:01:11.443Z,44.04
2018-08-19T12:02:11.544Z,44.04
2018-08-19T12:03:11.585Z,44.04
2018-08-19T12:04:11.658Z,45.12
2018-08-19T12:05:11.731Z,44.34
2018-08-19T12:06:11.803Z,44.70
2018-08-19T12:07:11.873Z,44.43
2018-08-19T12:08:11.945Z,43.38
2018-08-19T12:09:12.020Z,43.13
2018-08-19T12:10:12.093Z,42.44
2018-08-19T12:11:12.161Z,42.81
2018-08-19T12:12:12.233Z,43.69
2018-08-19T12:13:12.305Z,43.10
2018-08-19T12:14:12.380Z,42.81
2018-08-19T12:15:12.448Z,43.01
2018-08-19T12:16:12.520Z,41.74
2018-08-19T12:17:12.592Z,41.83
2018-08-19T12:18:12.668Z,42.22
2018-08-19T12:19:12.735Z,43.07
2018-08-19T12:20:12.809Z,43.28
2018-08-19T12:21:12.883Z,42.44
2018-08-19T12:22:12.954Z,42.07
2018-08-19T12:23:13.022Z,42.93
2018-08-19T12:24:13.095Z,41.88
2018-08-19T12:25:13.169Z,41.97
2018-08-19T12:26:13.239Z,41.23
2018-08-19T12:27:13.312Z,41.60
2018-08-19T12:28:13.382Z,41.89
2018-08-19T12:29:13.454Z,41.21
2018-08-19T12:30:13.525Z,42.46
2018-08-19T12:31:13.598Z,42.64
2018-08-19T12:32:13.669Z,43.10
2018-08-19T12:33:13.742Z,43.01
2018-08-19T12:34:14.066Z,42.64
2018-08-19T12:35:13.892Z,41.21
2018-08-19T12:36:13.957Z,40.74
2018-08-19T12:37:14.111Z,41.03
2018-08-19T12:38:14.106Z,40.86
2018-08-19T12:39:14.174Z,40.14
2018-08-19T12:40:14.247Z,41.54
2018-08-19T12:41:14.318Z,42.69
2018-08-19T12:42:14.393Z,42.69
2018-08-19T12:43:14.994Z,42.60
2018-08-19T12:44:14.535Z,42.07
2018-08-19T12:45:14.607Z,40.80
2018-08-19T12:46:14.682Z,40.92
2018-08-19T12:47:15.247Z,40.60
2018-08-19T12:48:14.823Z,40.70
2018-08-19T12:49:14.900Z,41.41
2018-08-19T12:50:15.425Z,40.82
2018-08-19T12:51:15.477Z,42.25
2018-08-19T12:52:15.113Z,42.15
2018-08-19T12:53:15.185Z,41.11
2018-08-19T12:54:15.257Z,40.16
2018-08-19T12:55:15.579Z,39.22
2018-08-19T12:56:15.402Z,38.56